TimeEDT,TemperatureF,Dew PointF,Humidity,Sea Level PressureIn,VisibilityMPH,Wind Direction,Wind SpeedMPH,Gust SpeedMPH,PrecipitationIn,Events,Conditions,WindDirDegrees,DateUTC
12:15 AM,67.5,66.2,96,30.16,0.5,Calm,Calm,-,N/A,Fog,Fog,0,2013-08-20 04:15:00
12:35 AM,66.6,65.3,96,30.16,0.2,Calm,Calm,-,N/A,Fog,Fog,0,2013-08-20 04:35:00
12:55 AM,67.8,66.4,95,30.16,0.2,Calm,Calm,-,N/A,Fog,Fog,0,2013-08-20 04:55:00
1:15 AM,67.3,66.0,96,30.15,0.2,Calm,Calm,-,N/A,Fog,Fog,0,2013-08-20 05:15:00
1:35 AM,67.1,65.7,95,30.14,0.2,Calm,Calm,-,N/A,Fog,Fog,0,2013-08-20 05:35:00
1:55 AM,66.2,65.1,96,30.14,0.2,Calm,Calm,-,N/A,Fog,Fog,0,2013-08-20 05:55:00
2:15 AM,66.9,65.5,95,30.14,0.2,Calm,Calm,-,N/A,Fog,Fog,0,2013-08-20 06:15:00
2:35 AM,66.4,65.3,96,30.13,0.2,Calm,Calm,-,N/A,Fog,Fog,0,2013-08-20 06:35:00
2:55 AM,66.2,64.9,96,30.13,0.5,Calm,Calm,-,N/A,Fog,Fog,0,2013-08-20 06:55:00
3:15 AM,65.7,64.4,96,30.13,1.0,Calm,Calm,-,N/A,,Mostly Cloudy,0,2013-08-20 07:15:00
3:35 AM,65.1,63.9,96,30.13,0.5,Calm,Calm,-,N/A,Fog,Fog,0,2013-08-20 07:35:00
3:55 AM,65.3,63.9,95,30.13,0.5,Calm,Calm,-,N/A,Fog,Fog,0,2013-08-20 07:55:00
4:15 AM,64.8,63.5,96,30.13,0.8,Calm,Calm,-,N/A,,Mist,0,2013-08-20 08:15:00
4:35 AM,64.6,63.5,96,30.13,1.0,Calm,Calm,-,N/A,,Mist,0,2013-08-20 08:35:00
4:55 AM,65.8,64.6,96,30.13,2.5,West,3.5,-,N/A,,Clear,270,2013-08-20 08:55:00
5:15 AM,66.4,65.3,96,30.13,7.0,Calm,Calm,-,N/A,,Clear,0,2013-08-20 09:15:00
5:35 AM,64.6,63.5,96,30.13,4.0,Calm,Calm,-,0.01,,Clear,0,2013-08-20 09:35:00
5:55 AM,64.4,63.1,96,30.13,5.0,Calm,Calm,-,0.01,,Clear,0,2013-08-20 09:55:00
6:15 AM,63.9,62.8,96,30.14,5.0,Calm,Calm,-,N/A,,Clear,0,2013-08-20 10:15:00
6:35 AM,64.6,63.3,96,30.15,1.8,Calm,Calm,-,N/A,,Mist,0,2013-08-20 10:35:00
6:55 AM,64.6,63.5,96,30.16,2.5,Calm,Calm,-,N/A,,Clear,0,2013-08-20 10:55:00
7:15 AM,64.4,63.5,97,30.16,2.5,Calm,Calm,-,N/A,,Clear,0,2013-08-20 11:15:00
7:35 AM,65.1,63.9,96,30.16,4.0,Calm,Calm,-,N/A,,Clear,0,2013-08-20 11:35:00
7:55 AM,67.1,65.7,95,30.17,5.0,Calm,Calm,-,N/A,,Clear,0,2013-08-20 11:55:00
8:15 AM,67.6,66.4,96,30.17,7.0,Calm,Calm,-,N/A,,Clear,0,2013-08-20 12:15:00
8:35 AM,68.7,67.3,95,30.17,10.0,Calm,Calm,-,N/A,,Clear,0,2013-08-20 12:35:00
8:55 AM,69.3,68.0,96,30.18,10.0,Calm,Calm,-,N/A,,Clear,0,2013-08-20 12:55:00
9:15 AM,70.2,68.9,96,30.19,10.0,Calm,Calm,-,N/A,,Clear,0,2013-08-20 13:15:00
9:35 AM,70.9,69.6,96,30.19,10.0,Calm,Calm,-,N/A,,Clear,0,2013-08-20 13:35:00
9:55 AM,72.5,70.7,94,30.19,10.0,Calm,Calm,-,N/A,,Clear,0,2013-08-20 13:55:00
10:15 AM,73.8,68.2,83,30.19,10.0,Calm,Calm,-,N/A,,Clear,0,2013-08-20 14:15:00
10:35 AM,74.7,67.6,79,30.19,10.0,Calm,Calm,-,N/A,,Clear,0,2013-08-20 14:35:00
10:55 AM,74.8,67.3,77,30.20,10.0,Calm,Calm,-,N/A,,Scattered Clouds,0,2013-08-20 14:55:00
11:15 AM,75.7,66.6,73,30.21,10.0,Calm,Calm,-,N/A,,Mostly Cloudy,0,2013-08-20 15:15:00
11:35 AM,75.9,66.6,73,30.21,10.0,Calm,Calm,-,N/A,,Overcast,0,2013-08-20 15:35:00
11:55 AM,76.8,66.7,71,30.21,10.0,Calm,Calm,-,N/A,,Mostly Cloudy,0,2013-08-20 15:55:00
12:15 PM,77.7,66.4,68,30.21,10.0,SSE,3.5,-,N/A,,Scattered Clouds,150,2013-08-20 16:15:00
12:35 PM,78.4,66.0,66,30.22,10.0,Calm,Calm,-,N/A,,Scattered Clouds,0,2013-08-20 16:35:00
12:55 PM,78.8,66.6,66,30.21,10.0,SE,3.5,-,N/A,,Scattered Clouds,130,2013-08-20 16:55:00
1:15 PM,79.7,66.6,64,30.21,10.0,SSW,3.5,-,N/A,,Scattered Clouds,200,2013-08-20 17:15:00
1:35 PM,79.5,66.0,63,30.21,10.0,Calm,Calm,-,N/A,,Mostly Cloudy,0,2013-08-20 17:35:00
1:55 PM,79.2,64.9,62,30.20,10.0,Calm,Calm,-,N/A,,Mostly Cloudy,0,2013-08-20 17:55:00
2:15 PM,79.3,65.1,62,30.20,10.0,Calm,Calm,-,N/A,,Scattered Clouds,0,2013-08-20 18:15:00
2:35 PM,79.2,65.5,63,30.19,10.0,Calm,Calm,-,N/A,,Mostly Cloudy,0,2013-08-20 18:35:00
2:55 PM,78.8,66.0,65,30.19,10.0,Calm,Calm,-,N/A,,Overcast,0,2013-08-20 18:55:00
3:15 PM,78.8,66.0,65,30.19,10.0,Calm,Calm,-,N/A,,Overcast,0,2013-08-20 19:15:00
3:35 PM,79.3,66.7,65,30.18,10.0,Calm,Calm,-,N/A,,Overcast,0,2013-08-20 19:35:00
3:55 PM,79.9,67.1,65,30.17,10.0,Calm,Calm,-,N/A,,Overcast,0,2013-08-20 19:55:00
4:15 PM,79.7,67.3,66,30.16,10.0,NNE,3.5,-,N/A,,Mostly Cloudy,30,2013-08-20 20:15:00
4:35 PM,79.3,67.1,66,30.16,10.0,Calm,Calm,-,N/A,,Scattered Clouds,0,2013-08-20 20:35:00
4:55 PM,80.4,67.8,65,30.16,10.0,ENE,3.5,-,N/A,,Scattered Clouds,60,2013-08-20 20:55:00
5:15 PM,79.7,67.1,65,30.16,10.0,Calm,Calm,-,N/A,,Scattered Clouds,0,2013-08-20 21:15:00
5:35 PM,80.2,67.3,64,30.16,10.0,Calm,Calm,-,N/A,,Clear,0,2013-08-20 21:35:00
5:55 PM,79.7,68.2,68,30.16,10.0,NE,3.5,-,N/A,,Scattered Clouds,50,2013-08-20 21:55:00
6:15 PM,79.3,68.2,69,30.16,10.0,Calm,Calm,-,N/A,,Scattered Clouds,0,2013-08-20 22:15:00
6:35 PM,79.2,67.8,68,30.16,10.0,East,3.5,-,N/A,,Clear,90,2013-08-20 22:35:00
6:55 PM,78.8,68.7,71,30.16,10.0,Calm,Calm,-,N/A,,Clear,0,2013-08-20 22:55:00
7:15 PM,77.9,69.8,76,30.16,10.0,Calm,Calm,-,N/A,,Scattered Clouds,0,2013-08-20 23:15:00
7:35 PM,77.5,68.9,75,30.16,10.0,Calm,Calm,-,N/A,,Scattered Clouds,0,2013-08-20 23:35:00
7:55 PM,75.4,70.3,84,30.17,10.0,Calm,Calm,-,N/A,,Clear,0,2013-08-20 23:55:00
8:15 PM,74.3,70.9,89,30.17,10.0,Calm,Calm,-,N/A,,Clear,0,2013-08-21 00:15:00
8:35 PM,74.8,70.5,86,30.18,10.0,Calm,Calm,-,N/A,,Clear,0,2013-08-21 00:35:00
8:55 PM,74.5,70.9,88,30.18,10.0,Calm,Calm,-,N/A,,Clear,0,2013-08-21 00:55:00
9:15 PM,73.0,70.7,92,30.19,10.0,Calm,Calm,-,N/A,,Clear,0,2013-08-21 01:15:00
9:35 PM,73.6,71.1,92,30.19,10.0,Calm,Calm,-,N/A,,Clear,0,2013-08-21 01:35:00
9:55 PM,72.7,70.3,92,30.19,10.0,Calm,Calm,-,N/A,,Clear,0,2013-08-21 01:55:00
10:15 PM,72.5,70.7,94,30.19,10.0,Calm,Calm,-,N/A,,Clear,0,2013-08-21 02:15:00
10:35 PM,72.3,70.5,94,30.19,7.0,Calm,Calm,-,N/A,,Clear,0,2013-08-21 02:35:00
10:55 PM,73.4,70.7,91,30.19,10.0,Calm,Calm,-,N/A,,Clear,0,2013-08-21 02:55:00
11:15 PM,72.9,70.7,93,30.19,10.0,Calm,Calm,-,N/A,,Clear,0,2013-08-21 03:15:00
11:35 PM,72.9,69.8,90,30.20,10.0,Calm,Calm,-,N/A,,Clear,0,2013-08-21 03:35:00
11:55 PM,72.3,70.3,93,30.20,10.0,Calm,Calm,-,N/A,,Clear,0,2013-08-21 03:55:00